createdAt,value
2022-08-25T00:00:17.676Z,21.60
2022-08-25T00:04:24.613Z,21.50
2022-08-25T00:08:31.383Z,21.40
2022-08-25T00:12:38.520Z,21.30
2022-08-25T00:16:45.975Z,21.20
2022-08-25T00:20:52.811Z,21.10
2022-08-25T00:24:59.534Z,21.00
2022-08-25T00:29:06.918Z,20.90
2022-08-25T00:33:13.939Z,20.80
2022-08-25T00:37:20.847Z,20.80
2022-08-25T00:41:27.622Z,20.80
2022-08-25T00:45:35.992Z,20.70
2022-08-25T00:49:47.723Z,20.70
2022-08-25T00:53:54.523Z,20.60
2022-08-25T00:58:14.571Z,20.60
2022-08-25T01:02:21.609Z,20.60
2022-08-25T01:06:32.557Z,20.60
2022-08-25T01:10:42.920Z,20.50
2022-08-25T01:14:51.203Z,20.40
2022-08-25T01:19:00.387Z,20.40
2022-08-25T01:23:07.739Z,20.40
2022-08-25T01:27:14.503Z,20.30
2022-08-25T01:31:23.915Z,20.30
2022-08-25T01:35:31.299Z,20.30
2022-08-25T01:39:38.169Z,20.30
2022-08-25T01:43:45.628Z,20.20
2022-08-25T01:47:52.528Z,20.10
2022-08-25T01:52:33.196Z,20.20
2022-08-25T01:56:39.991Z,20.30
2022-08-25T02:00:48.829Z,20.30
2022-08-25T02:04:55.728Z,20.30
2022-08-25T02:09:06.782Z,20.30
2022-08-25T02:13:13.712Z,20.20
2022-08-25T02:17:21.126Z,20.20
2022-08-25T02:21:28.242Z,20.10
2022-08-25T02:25:34.970Z,20.00
2022-08-25T02:29:42.110Z,19.90
2022-08-25T02:33:51.142Z,19.90
2022-08-25T02:37:57.915Z,19.80
2022-08-25T02:42:04.940Z,19.80
2022-08-25T02:46:12.570Z,19.80
2022-08-25T02:50:19.499Z,19.80
2022-08-25T02:54:27.304Z,19.80
2022-08-25T02:58:34.172Z,19.80
2022-08-25T03:02:41.540Z,19.80
2022-08-25T03:06:48.460Z,19.80
2022-08-25T03:10:55.167Z,19.70
2022-08-25T03:15:02.204Z,19.70
2022-08-25T03:19:09.844Z,19.70
2022-08-25T03:23:17.616Z,19.60
2022-08-25T03:27:24.796Z,19.60
2022-08-25T03:31:32.694Z,19.60
2022-08-25T03:35:39.474Z,19.70
2022-08-25T03:39:46.266Z,19.70
2022-08-25T03:43:53.523Z,19.70
2022-08-25T03:48:00.254Z,19.80
2022-08-25T03:52:07.001Z,19.80
2022-08-25T03:56:13.762Z,19.80
2022-08-25T04:00:22.632Z,19.80
2022-08-25T04:04:29.520Z,19.70
2022-08-25T04:08:37.209Z,19.60
2022-08-25T04:12:44.160Z,19.60
2022-08-25T04:16:52.867Z,19.70
2022-08-25T04:21:05.860Z,19.70
2022-08-25T04:25:13.374Z,19.80
2022-08-25T04:29:23.523Z,19.90
2022-08-25T04:33:30.611Z,19.90
2022-08-25T04:37:37.406Z,19.80
2022-08-25T04:41:44.119Z,19.80
2022-08-25T04:45:51.005Z,19.70
2022-08-25T04:49:57.790Z,19.70
2022-08-25T04:54:06.756Z,19.80
2022-08-25T04:58:16.684Z,19.90
2022-08-25T05:02:25.269Z,20.00
2022-08-25T05:06:32.898Z,20.10
2022-08-25T05:10:40.979Z,20.00
2022-08-25T05:14:51.729Z,19.90
2022-08-25T05:18:58.575Z,19.80
2022-08-25T05:23:05.436Z,19.70
2022-08-25T05:27:14.839Z,19.90
2022-08-25T05:31:23.689Z,20.00
2022-08-25T05:35:30.536Z,20.20
2022-08-25T05:39:37.252Z,20.40
2022-08-25T05:43:45.775Z,20.50
2022-08-25T05:47:52.531Z,20.50
2022-08-25T05:52:00.139Z,20.60
2022-08-25T05:56:07.571Z,20.70
2022-08-25T06:00:14.828Z,20.80
2022-08-25T06:04:22.590Z,21.00
2022-08-25T06:08:32.267Z,21.20
2022-08-25T06:12:40.796Z,21.30
2022-08-25T06:16:51.633Z,21.60
2022-08-25T06:20:58.393Z,21.70
2022-08-25T06:25:06.136Z,21.90
2022-08-25T06:29:16.380Z,22.10
2022-08-25T06:33:23.091Z,22.20
2022-08-25T06:37:29.941Z,22.30
2022-08-25T06:41:37.421Z,22.50
2022-08-25T06:45:44.183Z,22.60
2022-08-25T06:49:50.997Z,22.70
2022-08-25T06:53:57.728Z,22.90
2022-08-25T06:58:05.428Z,23.00
2022-08-25T07:02:12.481Z,23.10
2022-08-25T07:06:22.500Z,23.30
2022-08-25T07:10:29.192Z,23.50
2022-08-25T07:14:38.460Z,23.60
2022-08-25T07:18:46.408Z,23.80
2022-08-25T07:22:53.400Z,23.90
2022-08-25T07:27:00.355Z,24.10
2022-08-25T07:31:07.434Z,24.30
2022-08-25T07:35:20.478Z,24.40
2022-08-25T07:39:33.732Z,24.50
2022-08-25T07:43:41.755Z,24.60
2022-08-25T07:47:51.487Z,24.80
2022-08-25T07:52:05.202Z,25.00
2022-08-25T07:56:15.583Z,25.20
2022-08-25T08:00:24.013Z,25.40
2022-08-25T08:04:31.444Z,25.60
2022-08-25T08:08:39.599Z,25.80
2022-08-25T08:12:51.042Z,26.00
2022-08-25T08:16:58.719Z,26.20
2022-08-25T08:21:10.721Z,26.40
2022-08-25T08:25:18.826Z,26.50
2022-08-25T08:29:28.445Z,26.70
2022-08-25T08:33:40.824Z,27.00
2022-08-25T08:37:47.969Z,27.30
2022-08-25T08:42:37.151Z,27.50
2022-08-25T08:46:56.713Z,27.70
2022-08-25T08:51:24.486Z,28.00
2022-08-25T08:55:37.532Z,28.30
2022-08-25T09:00:01.643Z,28.50
2022-08-25T09:04:24.428Z,28.80
2022-08-25T09:08:31.650Z,29.10
2022-08-25T09:13:02.531Z,29.30
2022-08-25T09:17:38.121Z,29.50
2022-08-25T09:22:36.017Z,29.80
2022-08-25T09:27:20.677Z,30.10
2022-08-25T09:31:38.877Z,30.40
2022-08-25T09:35:47.009Z,30.80
2022-08-25T09:39:57.356Z,31.00
2022-08-25T09:44:05.337Z,31.00
2022-08-25T09:48:24.749Z,31.00
2022-08-25T09:52:41.437Z,31.20
2022-08-25T09:56:52.611Z,31.40
2022-08-25T10:01:08.560Z,31.80
2022-08-25T10:05:24.549Z,32.10
2022-08-25T10:09:40.319Z,32.30
2022-08-25T10:14:00.568Z,32.60
2022-08-25T10:18:15.749Z,32.50
2022-08-25T10:22:32.363Z,32.90
2022-08-25T10:26:48.002Z,33.10
2022-08-25T10:31:02.450Z,33.30
2022-08-25T10:35:34.233Z,33.40
2022-08-25T10:39:54.880Z,33.60
2022-08-25T10:44:39.286Z,33.70
2022-08-25T10:49:04.289Z,33.80
2022-08-25T10:53:40.903Z,33.90
2022-08-25T10:57:55.640Z,34.00
2022-08-25T11:02:17.662Z,34.10
2022-08-25T11:06:41.372Z,34.20
2022-08-25T11:11:03.915Z,34.50
2022-08-25T11:15:20.368Z,34.40
2022-08-25T11:19:40.644Z,34.40
2022-08-25T11:23:59.121Z,34.50
2022-08-25T11:28:24.903Z,34.80
2022-08-25T11:32:35.467Z,35.10
2022-08-25T11:36:50.941Z,35.30
2022-08-25T11:41:11.426Z,35.10
2022-08-25T11:45:54.105Z,35.10
2022-08-25T11:50:08.047Z,35.30
2022-08-25T11:54:29.375Z,35.10
2022-08-25T11:58:53.592Z,35.10
2022-08-25T12:03:01.870Z,35.10
2022-08-25T12:07:13.739Z,35.00
2022-08-25T12:11:39.357Z,34.80
2022-08-25T12:15:48.331Z,35.10
2022-08-25T12:19:58.887Z,35.20
2022-08-25T12:24:08.858Z,35.20
2022-08-25T12:28:35.340Z,35.10
2022-08-25T12:33:10.140Z,35.30
2022-08-25T12:37:22.458Z,35.40
2022-08-25T12:41:33.764Z,35.20
2022-08-25T12:45:46.195Z,35.60
2022-08-25T12:49:54.711Z,35.70
2022-08-25T12:54:22.458Z,35.70
2022-08-25T12:59:00.417Z,35.80
2022-08-25T13:03:26.233Z,36.10
2022-08-25T13:07:54.522Z,36.10
2022-08-25T13:12:29.495Z,35.80
2022-08-25T13:16:36.499Z,35.90
2022-08-25T13:20:44.243Z,36.10
2022-08-25T13:24:53.225Z,36.30
2022-08-25T13:29:10.745Z,36.60
2022-08-25T13:33:23.858Z,36.30
2022-08-25T13:37:33.240Z,36.10
2022-08-25T13:41:48.379Z,36.00
2022-08-25T13:46:02.632Z,36.00
2022-08-25T13:50:20.556Z,35.70
2022-08-25T13:54:36.913Z,35.70
2022-08-25T13:58:46.549Z,35.80
2022-08-25T14:02:54.636Z,35.60
2022-08-25T14:07:08.292Z,35.30
2022-08-25T14:11:27.803Z,34.90
2022-08-25T14:15:35.386Z,35.10
2022-08-25T14:19:47.738Z,35.50
2022-08-25T14:23:55.647Z,35.50
2022-08-25T14:28:07.466Z,35.50
2022-08-25T14:32:16.789Z,35.70
2022-08-25T14:36:23.700Z,35.70
2022-08-25T14:40:34.193Z,35.50
2022-08-25T14:44:41.261Z,35.30
2022-08-25T14:48:52.179Z,35.00
2022-08-25T14:52:59.861Z,34.80
2022-08-25T14:57:08.413Z,34.70
2022-08-25T15:01:17.961Z,34.50
2022-08-25T15:05:31.809Z,34.40
2022-08-25T15:09:38.796Z,34.20
2022-08-25T15:13:49.415Z,34.00
2022-08-25T15:18:00.561Z,33.70
2022-08-25T15:22:07.991Z,33.50
2022-08-25T15:26:18.477Z,33.30
2022-08-25T15:30:30.869Z,33.10
2022-08-25T15:34:39.035Z,32.80
2022-08-25T15:38:45.885Z,32.60
2022-08-25T15:42:52.697Z,32.50
2022-08-25T15:47:00.597Z,32.40
2022-08-25T15:51:08.746Z,32.30
2022-08-25T15:55:17.391Z,32.20
2022-08-25T15:59:25.616Z,32.10
2022-08-25T16:03:32.403Z,32.00
2022-08-25T16:07:39.342Z,31.90
2022-08-25T16:11:46.177Z,31.90
2022-08-25T16:16:04.063Z,31.90
2022-08-25T16:20:13.619Z,31.90
2022-08-25T16:24:20.949Z,31.80
2022-08-25T16:28:28.353Z,31.60
2022-08-25T16:32:35.734Z,31.40
2022-08-25T16:36:42.480Z,31.40
2022-08-25T16:40:49.195Z,31.30
2022-08-25T16:44:55.928Z,31.10
2022-08-25T16:49:06.739Z,31.10
2022-08-25T16:53:32.119Z,31.00
2022-08-25T16:57:46.045Z,30.90
2022-08-25T17:01:54.697Z,30.90
2022-08-25T17:06:01.972Z,30.80
2022-08-25T17:10:12.363Z,30.80
2022-08-25T17:14:20.015Z,30.50
2022-08-25T17:18:26.704Z,30.20
2022-08-25T17:22:33.651Z,30.20
2022-08-25T17:26:42.371Z,29.90
2022-08-25T17:30:50.090Z,29.80
2022-08-25T17:34:56.849Z,29.60
2022-08-25T17:39:05.514Z,29.40
2022-08-25T17:43:12.613Z,29.30
2022-08-25T17:47:19.332Z,29.10
2022-08-25T17:51:27.149Z,29.00
2022-08-25T17:55:40.253Z,28.90
2022-08-25T17:59:49.907Z,28.70
2022-08-25T18:03:58.871Z,28.60
2022-08-25T18:08:10.300Z,28.30
2022-08-25T18:12:17.548Z,28.10
2022-08-25T18:16:27.705Z,28.00
2022-08-25T18:20:34.500Z,28.20
2022-08-25T18:24:41.894Z,27.70
2022-08-25T18:28:48.763Z,27.50
2022-08-25T18:32:55.743Z,27.40
2022-08-25T18:37:23.898Z,27.20
2022-08-25T18:41:36.616Z,27.10
2022-08-25T18:45:49.929Z,26.90
2022-08-25T18:49:56.707Z,26.60
2022-08-25T18:54:04.221Z,26.60
2022-08-25T18:58:11.610Z,26.40
2022-08-25T19:02:19.241Z,26.30
2022-08-25T19:06:26.131Z,26.20
2022-08-25T19:10:34.585Z,26.00
2022-08-25T19:14:41.811Z,25.80
2022-08-25T19:18:50.536Z,25.70
2022-08-25T19:22:59.481Z,25.60
2022-08-25T19:27:06.245Z,25.40
2022-08-25T19:31:22.421Z,25.40
2022-08-25T19:35:38.273Z,25.20
2022-08-25T19:39:52.966Z,25.20
2022-08-25T19:44:01.953Z,25.00
2022-08-25T19:48:09.025Z,24.90
2022-08-25T19:52:18.194Z,24.80
2022-08-25T19:56:27.119Z,24.80
2022-08-25T20:00:38.761Z,24.70
2022-08-25T20:04:49.856Z,24.70
2022-08-25T20:09:00.590Z,24.60
2022-08-25T20:13:07.808Z,24.40
2022-08-25T20:17:23.761Z,24.30
2022-08-25T20:21:33.364Z,24.20
2022-08-25T20:25:44.385Z,24.00
2022-08-25T20:29:52.648Z,23.90
2022-08-25T20:34:02.882Z,23.70
2022-08-25T20:38:10.554Z,23.70
2022-08-25T20:42:18.471Z,23.40
2022-08-25T20:46:25.965Z,23.20
2022-08-25T20:50:33.645Z,23.10
2022-08-25T20:54:40.684Z,23.20
2022-08-25T20:58:48.661Z,23.30
2022-08-25T21:02:56.601Z,23.30
2022-08-25T21:07:03.492Z,23.40
2022-08-25T21:11:15.383Z,23.20
2022-08-25T21:15:22.366Z,23.50
2022-08-25T21:19:31.543Z,23.90
2022-08-25T21:23:39.088Z,23.90
2022-08-25T21:27:45.926Z,23.90
2022-08-25T21:31:54.847Z,23.90
2022-08-25T21:36:02.073Z,23.80
2022-08-25T21:40:10.662Z,23.60
2022-08-25T21:44:17.524Z,23.60
2022-08-25T21:48:26.133Z,23.60
2022-08-25T21:52:33.668Z,23.40
2022-08-25T21:56:43.993Z,23.30
2022-08-25T22:00:50.764Z,23.30
2022-08-25T22:05:00.539Z,23.30
2022-08-25T22:09:09.286Z,23.20
2022-08-25T22:13:16.088Z,23.20
2022-08-25T22:17:25.085Z,23.10
2022-08-25T22:21:32.719Z,23.00
2022-08-25T22:25:39.537Z,23.00
2022-08-25T22:29:47.494Z,22.90
2022-08-25T22:33:55.462Z,22.90
2022-08-25T22:38:05.627Z,22.70
2022-08-25T22:42:12.496Z,22.60
2022-08-25T22:46:22.137Z,22.70
2022-08-25T22:50:29.069Z,22.70
2022-08-25T22:54:36.656Z,22.50
2022-08-25T22:58:44.191Z,22.60
2022-08-25T23:02:58.761Z,22.50
2022-08-25T23:07:05.536Z,22.50
2022-08-25T23:11:15.456Z,22.40
2022-08-25T23:15:22.319Z,22.30
2022-08-25T23:19:29.236Z,22.30
2022-08-25T23:23:36.991Z,22.20
2022-08-25T23:27:44.438Z,22.10
2022-08-25T23:31:51.232Z,22.10
2022-08-25T23:36:04.277Z,22.00
2022-08-25T23:40:12.024Z,22.00
2022-08-25T23:44:26.183Z,21.90
2022-08-25T23:48:33.844Z,21.80
2022-08-25T23:52:41.231Z,21.90
2022-08-25T23:56:51.692Z,21.80
